createdAt,value
2022-07-25T00:02:03.137Z,1.35
2022-07-25T00:05:06.821Z,1.23
2022-07-25T00:08:09.492Z,1.17
2022-07-25T00:11:12.393Z,0.83
2022-07-25T00:14:15.069Z,0.80
2022-07-25T00:17:18.152Z,1.73
2022-07-25T00:20:20.951Z,0.90
2022-07-25T00:23:23.909Z,1.48
2022-07-25T00:26:26.544Z,1.67
2022-07-25T00:29:29.751Z,0.95
2022-07-25T00:32:32.388Z,1.30
2022-07-25T00:35:35.322Z,1.20
2022-07-25T00:38:38.058Z,2.20
2022-07-25T00:41:41.156Z,1.43
2022-07-25T00:44:43.735Z,1.58
2022-07-25T00:47:46.668Z,1.25
2022-07-25T00:50:49.425Z,1.12
2022-07-25T00:53:52.450Z,1.20
2022-07-25T00:56:55.121Z,1.00
2022-07-25T00:59:58.529Z,1.12
2022-07-25T01:03:01.337Z,1.35
2022-07-25T01:06:04.677Z,1.17
2022-07-25T01:09:07.992Z,2.12
2022-07-25T01:12:11.011Z,1.60
2022-07-25T01:15:14.013Z,1.20
2022-07-25T01:18:17.726Z,0.95
2022-07-25T01:21:20.341Z,1.23
2022-07-25T01:24:23.332Z,1.50
2022-07-25T01:27:26.008Z,1.13
2022-07-25T01:30:28.977Z,1.37
2022-07-25T01:33:31.634Z,2.28
2022-07-25T01:36:34.808Z,1.05
2022-07-25T01:39:37.499Z,1.10
2022-07-25T01:42:40.834Z,1.40
2022-07-25T01:45:43.513Z,1.00
2022-07-25T01:48:46.674Z,1.42
2022-07-25T01:51:49.372Z,1.40
2022-07-25T01:54:52.340Z,1.17
2022-07-25T01:57:55.130Z,1.10
2022-07-25T02:00:59.328Z,1.15
2022-07-25T02:04:02.583Z,1.02
2022-07-25T02:07:06.156Z,0.80
2022-07-25T02:10:09.632Z,1.45
2022-07-25T02:13:12.473Z,0.77
2022-07-25T02:16:15.607Z,1.30
2022-07-25T02:19:18.382Z,1.73
2022-07-25T02:22:21.389Z,1.33
2022-07-25T02:25:24.028Z,1.42
2022-07-25T02:28:27.096Z,1.13
2022-07-25T02:31:29.707Z,1.25
2022-07-25T02:34:32.676Z,1.23
2022-07-25T02:37:35.381Z,0.60
2022-07-25T02:40:38.311Z,1.02
2022-07-25T02:43:40.896Z,1.43
2022-07-25T02:46:43.851Z,0.88
2022-07-25T02:49:47.517Z,0.85
2022-07-25T02:52:50.448Z,0.80
2022-07-25T02:55:53.059Z,0.80
2022-07-25T02:58:56.108Z,1.10
2022-07-25T03:01:58.836Z,1.10
2022-07-25T03:05:02.139Z,1.33
2022-07-25T03:08:06.313Z,1.23
2022-07-25T03:11:09.421Z,1.70
2022-07-25T03:14:12.027Z,1.40
2022-07-25T03:17:14.998Z,0.98
2022-07-25T03:20:17.685Z,1.30
2022-07-25T03:23:20.646Z,0.90
2022-07-25T03:26:23.268Z,0.98
2022-07-25T03:29:28.096Z,1.17
2022-07-25T03:32:30.858Z,1.05
2022-07-25T03:35:33.789Z,1.40
2022-07-25T03:38:38.010Z,1.00
2022-07-25T03:41:40.914Z,0.90
2022-07-25T03:44:43.550Z,1.03
2022-07-25T03:47:46.475Z,1.30
2022-07-25T03:50:49.243Z,1.30
2022-07-25T03:54:05.450Z,1.05
2022-07-25T03:57:08.340Z,1.20
2022-07-25T04:00:12.599Z,0.90
2022-07-25T04:03:15.665Z,1.10
2022-07-25T04:06:18.741Z,0.82
2022-07-25T04:09:22.204Z,0.90
2022-07-25T04:12:24.892Z,1.92
2022-07-25T04:15:27.947Z,0.93
2022-07-25T04:18:34.231Z,1.05
2022-07-25T04:21:37.293Z,0.95
2022-07-25T04:24:40.165Z,0.50
2022-07-25T04:27:43.413Z,0.62
2022-07-25T04:30:46.358Z,0.70
2022-07-25T04:33:49.668Z,0.98
2022-07-25T04:36:52.399Z,0.90
2022-07-25T04:39:55.635Z,1.33
2022-07-25T04:42:58.261Z,1.25
2022-07-25T04:46:02.096Z,1.27
2022-07-25T04:49:04.952Z,1.48
2022-07-25T04:52:07.969Z,1.80
2022-07-25T04:55:11.237Z,1.48
2022-07-25T04:58:14.427Z,1.58
2022-07-25T05:01:17.262Z,1.20
2022-07-25T05:04:20.250Z,1.55
2022-07-25T05:07:22.866Z,0.93
2022-07-25T05:10:27.797Z,1.45
2022-07-25T05:13:30.465Z,1.52
2022-07-25T05:16:33.422Z,1.20
2022-07-25T05:19:36.174Z,1.20
2022-07-25T05:22:39.318Z,1.52
2022-07-25T05:25:42.011Z,1.40
2022-07-25T05:28:45.042Z,0.90
2022-07-25T05:31:47.808Z,1.00
2022-07-25T05:34:50.912Z,0.77
2022-07-25T05:37:53.628Z,1.30
2022-07-25T05:40:56.842Z,0.98
2022-07-25T05:43:59.460Z,1.10
2022-07-25T05:47:02.571Z,1.97
2022-07-25T05:50:05.538Z,1.33
2022-07-25T05:53:08.929Z,1.48
2022-07-25T05:56:11.600Z,1.65
2022-07-25T05:59:15.157Z,1.70
2022-07-25T06:02:17.933Z,1.37
2022-07-25T06:05:20.935Z,1.80
2022-07-25T06:08:23.988Z,1.98
2022-07-25T06:11:30.638Z,1.62
2022-07-25T06:14:33.873Z,0.90
2022-07-25T06:17:36.906Z,1.67
2022-07-25T06:20:39.532Z,1.62
2022-07-25T06:23:42.614Z,1.80
2022-07-25T06:26:45.332Z,1.20
2022-07-25T06:29:48.521Z,1.58
2022-07-25T06:32:51.263Z,1.73
2022-07-25T06:35:54.289Z,1.55
2022-07-25T06:38:56.972Z,1.85
2022-07-25T06:42:00.325Z,1.40
2022-07-25T06:45:09.667Z,1.98
2022-07-25T06:48:13.494Z,2.07
2022-07-25T06:51:16.370Z,1.75
2022-07-25T06:54:19.380Z,1.80
2022-07-25T06:57:22.007Z,1.87
2022-07-25T07:00:25.471Z,1.87
2022-07-25T07:03:28.446Z,2.30
2022-07-25T07:06:31.667Z,1.65
2022-07-25T07:09:34.526Z,1.73
2022-07-25T07:12:37.649Z,1.30
2022-07-25T07:15:50.301Z,1.85
2022-07-25T07:18:53.544Z,1.40
2022-07-25T07:21:56.172Z,1.15
2022-07-25T07:24:59.468Z,2.70
2022-07-25T07:28:02.338Z,1.40
2022-07-25T07:31:16.105Z,1.77
2022-07-25T07:34:19.678Z,2.00
2022-07-25T07:37:22.817Z,1.45
2022-07-25T07:40:26.903Z,1.80
2022-07-25T07:43:32.004Z,2.28
2022-07-25T07:46:34.871Z,1.80
2022-07-25T07:49:38.162Z,1.80
2022-07-25T07:52:41.368Z,2.28
2022-07-25T07:55:44.519Z,2.45
2022-07-25T07:58:47.412Z,1.73
2022-07-25T08:01:50.494Z,1.80
2022-07-25T08:04:53.470Z,1.97
2022-07-25T08:07:56.248Z,1.90
2022-07-25T08:10:59.995Z,1.85
2022-07-25T08:14:04.947Z,2.17
2022-07-25T08:17:08.067Z,2.30
2022-07-25T08:20:36.892Z,2.10
2022-07-25T08:23:39.824Z,1.73
2022-07-25T08:26:42.630Z,2.30
2022-07-25T08:29:45.579Z,2.50
2022-07-25T08:32:51.354Z,2.62
2022-07-25T08:35:55.749Z,2.17
2022-07-25T08:38:58.435Z,1.95
2022-07-25T08:42:05.468Z,1.92
2022-07-25T08:45:19.653Z,2.25
2022-07-25T08:48:25.117Z,2.40
2022-07-25T08:51:28.712Z,1.97
2022-07-25T08:54:31.902Z,1.70
2022-07-25T08:57:35.881Z,1.83
2022-07-25T09:00:39.360Z,1.95
2022-07-25T09:03:43.452Z,2.42
2022-07-25T09:06:51.442Z,1.97
2022-07-25T09:09:54.141Z,1.92
2022-07-25T09:13:11.041Z,2.03
2022-07-25T09:16:13.918Z,2.28
2022-07-25T09:19:23.238Z,2.60
2022-07-25T09:22:26.022Z,2.17
2022-07-25T09:25:30.013Z,2.20
2022-07-25T09:28:40.144Z,2.47
2022-07-25T09:31:43.217Z,2.00
2022-07-25T09:34:47.826Z,2.17
2022-07-25T09:37:50.692Z,2.43
2022-07-25T09:40:59.024Z,2.42
2022-07-25T09:44:02.043Z,2.17
2022-07-25T09:47:12.422Z,1.80
2022-07-25T09:50:18.693Z,2.75
2022-07-25T09:53:21.397Z,2.50
2022-07-25T09:56:24.365Z,2.03
2022-07-25T09:59:27.028Z,2.60
2022-07-25T10:02:48.587Z,2.22
2022-07-25T10:06:21.597Z,2.00
2022-07-25T10:09:24.431Z,2.20
2022-07-25T10:12:27.734Z,2.30
2022-07-25T10:15:43.923Z,2.67
2022-07-25T10:18:49.707Z,2.85
2022-07-25T10:21:56.000Z,2.55
2022-07-25T10:25:10.666Z,1.87
2022-07-25T10:28:20.213Z,2.30
2022-07-25T10:31:31.978Z,2.78
2022-07-25T10:34:35.279Z,2.53
2022-07-25T10:37:38.332Z,2.75
2022-07-25T10:40:46.612Z,2.60
2022-07-25T10:43:50.876Z,2.15
2022-07-25T10:47:14.571Z,2.87
2022-07-25T10:50:34.774Z,2.70
2022-07-25T10:53:48.413Z,2.55
2022-07-25T10:56:54.674Z,2.77
2022-07-25T11:00:06.475Z,2.05
2022-07-25T11:03:13.425Z,2.90
2022-07-25T11:06:37.129Z,2.22
2022-07-25T11:09:42.832Z,2.20
2022-07-25T11:12:45.594Z,2.70
2022-07-25T11:15:48.668Z,2.37
2022-07-25T11:18:51.264Z,3.22
2022-07-25T11:21:56.853Z,2.35
2022-07-25T11:25:00.561Z,2.92
2022-07-25T11:28:04.079Z,2.07
2022-07-25T11:31:07.245Z,3.05
2022-07-25T11:34:10.362Z,3.15
2022-07-25T11:37:14.661Z,1.60
2022-07-25T11:40:19.573Z,2.87
2022-07-25T11:43:23.387Z,2.00
2022-07-25T11:46:26.447Z,2.10
2022-07-25T11:49:29.530Z,2.30
2022-07-25T11:52:34.812Z,2.22
2022-07-25T11:55:42.502Z,3.33
2022-07-25T11:59:00.037Z,1.77
2022-07-25T12:02:02.802Z,2.60
2022-07-25T12:05:11.529Z,3.00
2022-07-25T12:08:19.468Z,1.95
2022-07-25T12:11:23.503Z,2.75
2022-07-25T12:14:26.358Z,2.30
2022-07-25T12:17:29.374Z,2.35
2022-07-25T12:20:34.270Z,3.10
2022-07-25T12:23:39.003Z,2.65
2022-07-25T12:26:41.692Z,1.98
2022-07-25T12:29:44.777Z,2.50
2022-07-25T12:32:47.411Z,2.42
2022-07-25T12:35:50.404Z,2.37
2022-07-25T12:38:53.097Z,2.22
2022-07-25T12:41:56.068Z,3.10
2022-07-25T12:44:58.677Z,2.97
2022-07-25T12:48:01.621Z,1.90
2022-07-25T12:51:04.260Z,2.60
2022-07-25T12:54:07.792Z,1.58
2022-07-25T12:57:12.487Z,2.37
2022-07-25T13:00:19.144Z,2.40
2022-07-25T13:03:21.806Z,2.75
2022-07-25T13:06:24.866Z,2.70
2022-07-25T13:09:28.169Z,2.45
2022-07-25T13:12:31.273Z,2.83
2022-07-25T13:15:34.215Z,2.73
2022-07-25T13:18:37.462Z,2.75
2022-07-25T13:21:40.409Z,2.58
2022-07-25T13:24:43.702Z,2.62
2022-07-25T13:27:48.560Z,2.67
2022-07-25T13:30:51.722Z,2.77
2022-07-25T13:33:54.400Z,2.70
2022-07-25T13:36:57.513Z,2.67
2022-07-25T13:40:00.129Z,2.17
2022-07-25T13:43:03.013Z,2.67
2022-07-25T13:46:05.947Z,2.27
2022-07-25T13:49:09.335Z,2.47
2022-07-25T13:52:12.462Z,2.97
2022-07-25T13:55:15.601Z,2.33
2022-07-25T13:58:18.344Z,2.67
2022-07-25T14:01:21.338Z,2.37
2022-07-25T14:04:24.601Z,2.75
2022-07-25T14:07:27.305Z,2.70
2022-07-25T14:10:30.296Z,2.70
2022-07-25T14:13:33.100Z,2.78
2022-07-25T14:16:36.135Z,2.30
2022-07-25T14:19:38.857Z,2.12
2022-07-25T14:22:44.073Z,3.22
2022-07-25T14:25:46.803Z,2.53
2022-07-25T14:28:50.000Z,2.58
2022-07-25T14:31:52.906Z,2.33
2022-07-25T14:34:55.932Z,3.10
2022-07-25T14:37:58.916Z,2.72
2022-07-25T14:41:01.897Z,2.22
2022-07-25T14:44:04.851Z,3.03
2022-07-25T14:47:12.255Z,2.57
2022-07-25T14:50:15.830Z,3.00
2022-07-25T14:53:18.726Z,1.90
2022-07-25T14:56:21.677Z,2.75
2022-07-25T14:59:24.891Z,2.83
2022-07-25T15:02:28.363Z,2.80
2022-07-25T15:05:31.259Z,2.42
2022-07-25T15:08:33.980Z,2.87
2022-07-25T15:11:37.342Z,1.90
2022-07-25T15:14:41.734Z,2.75
2022-07-25T15:17:44.673Z,2.53
2022-07-25T15:20:48.699Z,2.17
2022-07-25T15:23:53.944Z,2.30
2022-07-25T15:26:58.135Z,2.87
2022-07-25T15:30:01.150Z,2.58
2022-07-25T15:33:03.989Z,2.97
2022-07-25T15:36:07.287Z,2.30
2022-07-25T15:39:10.341Z,3.47
2022-07-25T15:42:13.599Z,1.77
2022-07-25T15:45:32.524Z,3.42
2022-07-25T15:48:36.517Z,2.37
2022-07-25T15:51:39.349Z,1.77
2022-07-25T15:54:42.263Z,3.22
2022-07-25T15:57:44.928Z,2.50
2022-07-25T16:00:47.914Z,1.95
2022-07-25T16:03:50.906Z,2.73
2022-07-25T16:06:53.657Z,2.83
2022-07-25T16:09:57.264Z,1.98
2022-07-25T16:13:00.907Z,2.25
2022-07-25T16:16:04.788Z,2.30
2022-07-25T16:19:09.535Z,2.47
2022-07-25T16:22:12.959Z,1.73
2022-07-25T16:25:15.793Z,2.25
2022-07-25T16:28:18.996Z,2.40
2022-07-25T16:31:22.019Z,2.53
2022-07-25T16:34:29.072Z,2.40
2022-07-25T16:37:31.899Z,1.73
2022-07-25T16:40:35.742Z,3.00
2022-07-25T16:43:38.395Z,2.47
2022-07-25T16:46:41.659Z,2.53
2022-07-25T16:49:44.315Z,2.97
2022-07-25T16:52:47.363Z,2.33
2022-07-25T16:55:49.952Z,2.75
2022-07-25T16:58:53.908Z,1.92
2022-07-25T17:01:56.588Z,2.87
2022-07-25T17:04:59.941Z,2.67
2022-07-25T17:08:02.837Z,1.87
2022-07-25T17:11:06.106Z,2.65
2022-07-25T17:14:08.716Z,2.37
2022-07-25T17:17:12.108Z,2.08
2022-07-25T17:20:15.293Z,2.07
2022-07-25T17:23:18.299Z,3.08
2022-07-25T17:26:26.256Z,3.12
2022-07-25T17:29:29.824Z,2.67
2022-07-25T17:32:32.403Z,2.15
2022-07-25T17:35:35.416Z,2.47
2022-07-25T17:38:39.711Z,2.10
2022-07-25T17:41:42.801Z,3.22
2022-07-25T17:44:45.419Z,2.55
2022-07-25T17:47:48.776Z,2.60
2022-07-25T17:50:52.544Z,2.83
2022-07-25T17:53:55.631Z,2.35
2022-07-25T17:56:58.567Z,1.92
2022-07-25T18:00:01.851Z,2.53
2022-07-25T18:03:14.335Z,2.12
2022-07-25T18:06:17.543Z,1.13
2022-07-25T18:09:24.208Z,1.37
2022-07-25T18:12:29.508Z,1.90
2022-07-25T18:15:32.335Z,2.12
2022-07-25T18:18:35.507Z,2.53
2022-07-25T18:21:38.169Z,2.97
2022-07-25T18:24:41.332Z,2.55
2022-07-25T18:27:46.041Z,2.70
2022-07-25T18:30:49.160Z,2.33
2022-07-25T18:33:51.845Z,1.92
2022-07-25T18:36:54.963Z,2.17
2022-07-25T18:39:57.776Z,2.10
2022-07-25T18:43:00.734Z,1.80
2022-07-25T18:46:06.710Z,2.75
2022-07-25T18:49:13.084Z,1.85
2022-07-25T18:52:15.798Z,1.87
2022-07-25T18:55:18.765Z,1.25
2022-07-25T18:58:21.545Z,2.00
2022-07-25T19:01:24.719Z,1.87
2022-07-25T19:04:27.627Z,2.40
2022-07-25T19:07:31.373Z,1.57
2022-07-25T19:10:34.287Z,1.92
2022-07-25T19:13:51.190Z,2.20
2022-07-25T19:16:54.834Z,1.80
2022-07-25T19:20:01.949Z,2.37
2022-07-25T19:23:04.580Z,2.80
2022-07-25T19:26:08.741Z,2.00
2022-07-25T19:29:11.521Z,2.00
2022-07-25T19:32:16.023Z,1.20
2022-07-25T19:35:26.113Z,2.20
2022-07-25T19:38:29.857Z,2.13
2022-07-25T19:41:32.860Z,1.80
2022-07-25T19:44:37.048Z,1.73
2022-07-25T19:47:39.849Z,2.37
2022-07-25T19:50:42.892Z,1.67
2022-07-25T19:53:45.512Z,1.20
2022-07-25T19:56:48.525Z,1.83
2022-07-25T19:59:51.202Z,2.33
2022-07-25T20:02:54.447Z,2.17
2022-07-25T20:05:57.419Z,1.25
2022-07-25T20:09:00.225Z,2.03
2022-07-25T20:12:03.774Z,2.22
2022-07-25T20:15:06.874Z,1.90
2022-07-25T20:18:09.938Z,1.85
2022-07-25T20:21:13.146Z,2.80
2022-07-25T20:24:21.188Z,1.33
2022-07-25T20:27:24.364Z,1.52
2022-07-25T20:30:31.565Z,2.20
2022-07-25T20:33:37.325Z,2.37
2022-07-25T20:36:40.348Z,2.00
2022-07-25T20:39:43.049Z,1.70
2022-07-25T20:42:46.105Z,1.98
2022-07-25T20:45:48.867Z,1.50
2022-07-25T20:48:51.952Z,1.80
2022-07-25T20:51:54.910Z,1.58
2022-07-25T20:54:57.870Z,1.87
2022-07-25T20:58:00.949Z,1.70
2022-07-25T21:01:04.004Z,1.90
2022-07-25T21:04:07.936Z,2.00
2022-07-25T21:07:10.998Z,2.20
2022-07-25T21:10:14.191Z,1.33
2022-07-25T21:13:18.534Z,2.20
2022-07-25T21:16:21.798Z,2.35
2022-07-25T21:19:24.756Z,1.90
2022-07-25T21:22:27.701Z,1.80
2022-07-25T21:25:30.745Z,1.40
2022-07-25T21:28:33.672Z,1.52
2022-07-25T21:31:37.467Z,1.48
2022-07-25T21:34:41.228Z,1.50
2022-07-25T21:37:44.276Z,1.77
2022-07-25T21:40:47.101Z,1.50
2022-07-25T21:43:50.049Z,1.30
2022-07-25T21:46:53.106Z,1.62
2022-07-25T21:50:19.216Z,2.80
2022-07-25T21:53:27.543Z,1.55
2022-07-25T21:56:30.859Z,2.00
2022-07-25T21:59:33.581Z,1.70
2022-07-25T22:02:36.596Z,1.67
2022-07-25T22:05:39.640Z,1.60
2022-07-25T22:08:42.289Z,1.50
2022-07-25T22:11:46.728Z,1.43
2022-07-25T22:14:49.454Z,1.62
2022-07-25T22:17:52.558Z,1.33
2022-07-25T22:20:55.384Z,1.17
2022-07-25T22:23:58.569Z,1.17
2022-07-25T22:27:01.335Z,1.87
2022-07-25T22:30:05.884Z,1.55
2022-07-25T22:33:08.956Z,1.15
2022-07-25T22:36:12.019Z,1.00
2022-07-25T22:39:15.809Z,1.10
2022-07-25T22:42:18.945Z,0.90
2022-07-25T22:45:23.960Z,1.67
2022-07-25T22:48:27.121Z,1.48
2022-07-25T22:51:30.282Z,1.83
2022-07-25T22:54:34.095Z,1.80
2022-07-25T22:57:37.739Z,1.20
2022-07-25T23:00:40.836Z,3.55
2022-07-25T23:03:43.551Z,1.65
2022-07-25T23:06:46.787Z,1.50
2022-07-25T23:09:49.417Z,1.60
2022-07-25T23:12:52.434Z,1.47
2022-07-25T23:15:55.118Z,1.45
2022-07-25T23:18:58.177Z,1.58
2022-07-25T23:22:00.905Z,1.05
2022-07-25T23:25:04.505Z,1.70
2022-07-25T23:28:07.453Z,1.57
2022-07-25T23:31:10.457Z,1.25
2022-07-25T23:34:13.189Z,1.70
2022-07-25T23:37:16.290Z,1.52
2022-07-25T23:40:19.013Z,1.67
2022-07-25T23:43:55.498Z,1.63
2022-07-25T23:46:45.809Z,1.35
2022-07-25T23:49:49.704Z,1.77
2022-07-25T23:52:52.459Z,1.30
2022-07-25T23:55:55.430Z,1.90
2022-07-25T23:58:58.128Z,1.67
